sensor_id;sensor_type;location;lat;lon;timestamp;P1;durP1;ratioP1;P2;durP2;ratioP2
57726;SDS011;43568;43.180;-0.028;2022-11-11T00:00:26;4.55;;;4.45;;
57726;SDS011;43568;43.180;-0.028;2022-11-11T00:02:56;5.22;;;5.03;;
57726;SDS011;43568;43.180;-0.028;2022-11-11T00:05:22;4.60;;;4.50;;
57726;SDS011;43568;43.180;-0.028;2022-11-11T00:07:48;4.55;;;4.45;;
57726;SDS011;43568;43.180;-0.028;2022-11-11T00:10:14;4.78;;;4.57;;
57726;SDS011;43568;43.180;-0.028;2022-11-11T00:12:40;4.45;;;4.35;;
57726;SDS011;43568;43.180;-0.028;2022-11-11T00:15:06;4.80;;;4.60;;
57726;SDS011;43568;43.180;-0.028;2022-11-11T00:17:33;4.72;;;4.60;;
57726;SDS011;43568;43.180;-0.028;2022-11-11T00:20:18;5.15;;;4.95;;
57726;SDS011;43568;43.180;-0.028;2022-11-11T00:23:03;4.53;;;4.32;;
57726;SDS011;43568;43.180;-0.028;2022-11-11T00:25:51;4.82;;;4.65;;
57726;SDS011;43568;43.180;-0.028;2022-11-11T00:28:17;4.40;;;4.30;;
57726;SDS011;43568;43.180;-0.028;2022-11-11T00:30:43;4.32;;;4.22;;
57726;SDS011;43568;43.180;-0.028;2022-11-11T00:33:09;4.30;;;4.20;;
57726;SDS011;43568;43.180;-0.028;2022-11-11T00:35:35;4.57;;;4.38;;
57726;SDS011;43568;43.180;-0.028;2022-11-11T00:38:17;4.50;;;4.40;;
57726;SDS011;43568;43.180;-0.028;2022-11-11T00:41:02;4.40;;;4.30;;
57726;SDS011;43568;43.180;-0.028;2022-11-11T00:43:28;4.30;;;4.20;;
57726;SDS011;43568;43.180;-0.028;2022-11-11T00:45:54;4.95;;;4.80;;
57726;SDS011;43568;43.180;-0.028;2022-11-11T00:48:40;4.30;;;4.20;;
57726;SDS011;43568;43.180;-0.028;2022-11-11T00:51:25;4.50;;;4.40;;
57726;SDS011;43568;43.180;-0.028;2022-11-11T00:53:51;4.50;;;4.40;;
57726;SDS011;43568;43.180;-0.028;2022-11-11T00:56:17;4.38;;;4.28;;
57726;SDS011;43568;43.180;-0.028;2022-11-11T00:58:43;4.30;;;4.20;;
57726;SDS011;43568;43.180;-0.028;2022-11-11T01:01:09;4.50;;;4.40;;
57726;SDS011;43568;43.180;-0.028;2022-11-11T01:03:36;5.80;;;5.50;;
57726;SDS011;43568;43.180;-0.028;2022-11-11T01:06:02;4.45;;;4.35;;
57726;SDS011;43568;43.180;-0.028;2022-11-11T01:08:29;4.40;;;4.30;;
57726;SDS011;43568;43.180;-0.028;2022-11-11T01:10:55;4.30;;;4.20;;
57726;SDS011;43568;43.180;-0.028;2022-11-11T01:13:25;4.32;;;4.22;;
57726;SDS011;43568;43.180;-0.028;2022-11-11T01:15:52;4.40;;;4.30;;
57726;SDS011;43568;43.180;-0.028;2022-11-11T01:18:20;5.03;;;4.83;;
57726;SDS011;43568;43.180;-0.028;2022-11-11T01:20:46;4.75;;;4.57;;
57726;SDS011;43568;43.180;-0.028;2022-11-11T01:23:13;5.35;;;5.15;;
57726;SDS011;43568;43.180;-0.028;2022-11-11T01:25:39;5.20;;;5.00;;
57726;SDS011;43568;43.180;-0.028;2022-11-11T01:28:06;4.50;;;4.40;;
57726;SDS011;43568;43.180;-0.028;2022-11-11T01:30:33;4.40;;;4.30;;
57726;SDS011;43568;43.180;-0.028;2022-11-11T01:32:59;4.90;;;4.70;;
57726;SDS011;43568;43.180;-0.028;2022-11-11T01:35:25;4.63;;;4.53;;
57726;SDS011;43568;43.180;-0.028;2022-11-11T01:37:52;4.80;;;4.60;;
57726;SDS011;43568;43.180;-0.028;2022-11-11T01:40:18;4.82;;;4.63;;
57726;SDS011;43568;43.180;-0.028;2022-11-11T01:43:13;5.00;;;4.80;;
57726;SDS011;43568;43.180;-0.028;2022-11-11T01:48:13;4.40;;;4.30;;
57726;SDS011;43568;43.180;-0.028;2022-11-11T01:50:58;4.32;;;4.22;;
57726;SDS011;43568;43.180;-0.028;2022-11-11T01:53:24;4.60;;;4.50;;
57726;SDS011;43568;43.180;-0.028;2022-11-11T01:55:50;4.60;;;4.50;;
57726;SDS011;43568;43.180;-0.028;2022-11-11T01:58:16;4.30;;;4.20;;
57726;SDS011;43568;43.180;-0.028;2022-11-11T02:00:42;4.70;;;4.60;;
57726;SDS011;43568;43.180;-0.028;2022-11-11T02:03:08;5.18;;;4.97;;
57726;SDS011;43568;43.180;-0.028;2022-11-11T02:05:35;4.70;;;4.60;;
57726;SDS011;43568;43.180;-0.028;2022-11-11T02:08:10;5.32;;;5.13;;
57726;SDS011;43568;43.180;-0.028;2022-11-11T02:10:37;4.90;;;4.70;;
57726;SDS011;43568;43.180;-0.028;2022-11-11T02:13:05;5.20;;;5.00;;
57726;SDS011;43568;43.180;-0.028;2022-11-11T02:15:53;4.90;;;4.70;;
57726;SDS011;43568;43.180;-0.028;2022-11-11T02:18:19;4.60;;;4.50;;
57726;SDS011;43568;43.180;-0.028;2022-11-11T02:20:45;5.25;;;5.05;;
57726;SDS011;43568;43.180;-0.028;2022-11-11T02:25:41;4.60;;;4.50;;
57726;SDS011;43568;43.180;-0.028;2022-11-11T02:28:09;4.88;;;4.68;;
57726;SDS011;43568;43.180;-0.028;2022-11-11T02:30:35;4.88;;;4.68;;
57726;SDS011;43568;43.180;-0.028;2022-11-11T02:33:01;4.60;;;4.50;;
57726;SDS011;43568;43.180;-0.028;2022-11-11T02:35:34;4.70;;;4.60;;
57726;SDS011;43568;43.180;-0.028;2022-11-11T02:38:00;4.60;;;4.50;;
57726;SDS011;43568;43.180;-0.028;2022-11-11T02:40:34;4.80;;;4.60;;
57726;SDS011;43568;43.180;-0.028;2022-11-11T02:43:01;6.30;;;5.68;;
57726;SDS011;43568;43.180;-0.028;2022-11-11T02:45:27;5.07;;;4.88;;
57726;SDS011;43568;43.180;-0.028;2022-11-11T02:47:53;4.90;;;4.70;;
57726;SDS011;43568;43.180;-0.028;2022-11-11T02:50:19;4.50;;;4.40;;
57726;SDS011;43568;43.180;-0.028;2022-11-11T02:52:45;4.60;;;4.50;;
57726;SDS011;43568;43.180;-0.028;2022-11-11T02:55:11;5.00;;;4.82;;
57726;SDS011;43568;43.180;-0.028;2022-11-11T02:57:37;4.90;;;4.70;;
57726;SDS011;43568;43.180;-0.028;2022-11-11T03:00:03;4.97;;;4.75;;
57726;SDS011;43568;43.180;-0.028;2022-11-11T03:02:30;4.60;;;4.50;;
57726;SDS011;43568;43.180;-0.028;2022-11-11T03:04:56;4.50;;;4.40;;
57726;SDS011;43568;43.180;-0.028;2022-11-11T03:07:23;4.90;;;4.70;;
57726;SDS011;43568;43.180;-0.028;2022-11-11T03:09:49;4.60;;;4.50;;
57726;SDS011;43568;43.180;-0.028;2022-11-11T03:12:16;4.75;;;4.60;;
57726;SDS011;43568;43.180;-0.028;2022-11-11T03:14:42;4.80;;;4.60;;
57726;SDS011;43568;43.180;-0.028;2022-11-11T03:17:08;4.90;;;4.70;;
57726;SDS011;43568;43.180;-0.028;2022-11-11T03:19:53;5.15;;;4.95;;
57726;SDS011;43568;43.180;-0.028;2022-11-11T03:22:39;4.90;;;4.70;;
57726;SDS011;43568;43.180;-0.028;2022-11-11T03:25:05;6.40;;;6.00;;
57726;SDS011;43568;43.180;-0.028;2022-11-11T03:27:50;4.70;;;4.60;;
57726;SDS011;43568;43.180;-0.028;2022-11-11T03:30:16;4.95;;;4.75;;
57726;SDS011;43568;43.180;-0.028;2022-11-11T03:32:42;4.70;;;4.50;;
57726;SDS011;43568;43.180;-0.028;2022-11-11T03:35:08;4.80;;;4.60;;
57726;SDS011;43568;43.180;-0.028;2022-11-11T03:37:34;4.50;;;4.40;;
57726;SDS011;43568;43.180;-0.028;2022-11-11T03:40:19;4.90;;;4.70;;
57726;SDS011;43568;43.180;-0.028;2022-11-11T03:42:45;5.05;;;4.85;;
57726;SDS011;43568;43.180;-0.028;2022-11-11T03:45:11;4.40;;;4.30;;
57726;SDS011;43568;43.180;-0.028;2022-11-11T03:47:37;4.90;;;4.70;;
57726;SDS011;43568;43.180;-0.028;2022-11-11T03:50:03;4.75;;;4.63;;
57726;SDS011;43568;43.180;-0.028;2022-11-11T03:52:29;5.07;;;4.88;;
57726;SDS011;43568;43.180;-0.028;2022-11-11T03:54:55;5.05;;;4.85;;
57726;SDS011;43568;43.180;-0.028;2022-11-11T03:57:21;5.00;;;4.80;;
57726;SDS011;43568;43.180;-0.028;2022-11-11T03:59:57;5.53;;;5.20;;
57726;SDS011;43568;43.180;-0.028;2022-11-11T04:02:23;4.80;;;4.60;;
57726;SDS011;43568;43.180;-0.028;2022-11-11T04:05:08;4.60;;;4.50;;
57726;SDS011;43568;43.180;-0.028;2022-11-11T04:07:53;5.28;;;5.07;;
57726;SDS011;43568;43.180;-0.028;2022-11-11T04:10:37;4.95;;;4.75;;
57726;SDS011;43568;43.180;-0.028;2022-11-11T04:13:03;6.65;;;6.35;;
57726;SDS011;43568;43.180;-0.028;2022-11-11T04:15:49;5.00;;;4.80;;
57726;SDS011;43568;43.180;-0.028;2022-11-11T04:18:30;4.90;;;4.70;;
57726;SDS011;43568;43.180;-0.028;2022-11-11T04:21:15;4.82;;;4.63;;
57726;SDS011;43568;43.180;-0.028;2022-11-11T04:24:00;4.60;;;4.50;;
57726;SDS011;43568;43.180;-0.028;2022-11-11T04:26:26;5.07;;;4.78;;
57726;SDS011;43568;43.180;-0.028;2022-11-11T04:28:52;4.85;;;4.65;;
57726;SDS011;43568;43.180;-0.028;2022-11-11T04:31:41;4.88;;;4.68;;
57726;SDS011;43568;43.180;-0.028;2022-11-11T04:34:27;4.53;;;4.43;;
57726;SDS011;43568;43.180;-0.028;2022-11-11T04:36:53;4.68;;;4.57;;
57726;SDS011;43568;43.180;-0.028;2022-11-11T04:39:19;6.32;;;6.03;;
57726;SDS011;43568;43.180;-0.028;2022-11-11T04:42:03;4.60;;;4.50;;
57726;SDS011;43568;43.180;-0.028;2022-11-11T04:44:29;4.68;;;4.57;;
57726;SDS011;43568;43.180;-0.028;2022-11-11T04:47:14;4.72;;;4.57;;
57726;SDS011;43568;43.180;-0.028;2022-11-11T04:49:40;4.80;;;4.60;;
57726;SDS011;43568;43.180;-0.028;2022-11-11T04:52:07;4.93;;;4.72;;
57726;SDS011;43568;43.180;-0.028;2022-11-11T04:54:53;6.20;;;5.93;;
57726;SDS011;43568;43.180;-0.028;2022-11-11T04:57:41;5.63;;;5.43;;
57726;SDS011;43568;43.180;-0.028;2022-11-11T05:00:09;6.40;;;6.05;;
57726;SDS011;43568;43.180;-0.028;2022-11-11T05:02:35;5.27;;;5.07;;
57726;SDS011;43568;43.180;-0.028;2022-11-11T05:05:21;5.40;;;5.10;;
57726;SDS011;43568;43.180;-0.028;2022-11-11T05:07:47;4.50;;;4.40;;
57726;SDS011;43568;43.180;-0.028;2022-11-11T05:10:31;5.00;;;4.80;;
57726;SDS011;43568;43.180;-0.028;2022-11-11T05:12:57;5.00;;;4.80;;
57726;SDS011;43568;43.180;-0.028;2022-11-11T05:15:42;5.13;;;4.93;;
57726;SDS011;43568;43.180;-0.028;2022-11-11T05:18:27;4.90;;;4.70;;
57726;SDS011;43568;43.180;-0.028;2022-11-11T05:21:13;4.85;;;4.65;;
57726;SDS011;43568;43.180;-0.028;2022-11-11T05:23:45;5.00;;;4.80;;
57726;SDS011;43568;43.180;-0.028;2022-11-11T05:26:30;5.43;;;5.22;;
57726;SDS011;43568;43.180;-0.028;2022-11-11T05:28:57;5.00;;;4.80;;
57726;SDS011;43568;43.180;-0.028;2022-11-11T05:31:23;5.63;;;5.43;;
57726;SDS011;43568;43.180;-0.028;2022-11-11T05:33:49;4.90;;;4.70;;
57726;SDS011;43568;43.180;-0.028;2022-11-11T05:36:15;4.80;;;4.60;;
57726;SDS011;43568;43.180;-0.028;2022-11-11T05:38:42;4.75;;;4.60;;
57726;SDS011;43568;43.180;-0.028;2022-11-11T05:41:08;5.05;;;4.85;;
57726;SDS011;43568;43.180;-0.028;2022-11-11T05:43:34;4.65;;;4.55;;
57726;SDS011;43568;43.180;-0.028;2022-11-11T05:46:00;5.10;;;4.90;;
57726;SDS011;43568;43.180;-0.028;2022-11-11T05:48:26;4.90;;;4.70;;
57726;SDS011;43568;43.180;-0.028;2022-11-11T05:50:52;4.60;;;4.50;;
57726;SDS011;43568;43.180;-0.028;2022-11-11T05:53:18;5.30;;;5.10;;
57726;SDS011;43568;43.180;-0.028;2022-11-11T05:55:51;5.65;;;5.45;;
57726;SDS011;43568;43.180;-0.028;2022-11-11T05:58:20;5.65;;;5.45;;
57726;SDS011;43568;43.180;-0.028;2022-11-11T06:00:46;5.10;;;4.90;;
57726;SDS011;43568;43.180;-0.028;2022-11-11T06:03:12;4.97;;;4.78;;
57726;SDS011;43568;43.180;-0.028;2022-11-11T06:05:38;5.00;;;4.80;;
57726;SDS011;43568;43.180;-0.028;2022-11-11T06:08:04;5.20;;;5.00;;
57726;SDS011;43568;43.180;-0.028;2022-11-11T06:10:30;5.00;;;4.80;;
57726;SDS011;43568;43.180;-0.028;2022-11-11T06:12:56;5.10;;;4.90;;
57726;SDS011;43568;43.180;-0.028;2022-11-11T06:15:26;5.10;;;4.90;;
57726;SDS011;43568;43.180;-0.028;2022-11-11T06:17:52;4.97;;;4.78;;
57726;SDS011;43568;43.180;-0.028;2022-11-11T06:20:18;5.10;;;4.90;;
57726;SDS011;43568;43.180;-0.028;2022-11-11T06:22:44;4.97;;;4.78;;
57726;SDS011;43568;43.180;-0.028;2022-11-11T06:25:27;5.10;;;4.90;;
57726;SDS011;43568;43.180;-0.028;2022-11-11T06:28:12;5.00;;;4.80;;
57726;SDS011;43568;43.180;-0.028;2022-11-11T06:30:38;5.00;;;4.80;;
57726;SDS011;43568;43.180;-0.028;2022-11-11T06:33:05;4.60;;;4.50;;
57726;SDS011;43568;43.180;-0.028;2022-11-11T06:35:35;5.32;;;5.13;;
57726;SDS011;43568;43.180;-0.028;2022-11-11T06:38:01;5.53;;;5.32;;
57726;SDS011;43568;43.180;-0.028;2022-11-11T06:40:28;5.05;;;4.85;;
57726;SDS011;43568;43.180;-0.028;2022-11-11T06:42:55;5.10;;;4.90;;
57726;SDS011;43568;43.180;-0.028;2022-11-11T06:45:21;5.20;;;5.00;;
57726;SDS011;43568;43.180;-0.028;2022-11-11T06:47:47;4.93;;;4.72;;
57726;SDS011;43568;43.180;-0.028;2022-11-11T06:50:14;5.40;;;5.10;;
57726;SDS011;43568;43.180;-0.028;2022-11-11T06:52:40;5.10;;;4.90;;
57726;SDS011;43568;43.180;-0.028;2022-11-11T06:55:06;5.20;;;5.00;;
57726;SDS011;43568;43.180;-0.028;2022-11-11T06:57:32;5.32;;;5.13;;
57726;SDS011;43568;43.180;-0.028;2022-11-11T06:59:58;6.10;;;5.90;;
57726;SDS011;43568;43.180;-0.028;2022-11-11T07:02:24;5.10;;;4.90;;
57726;SDS011;43568;43.180;-0.028;2022-11-11T07:04:50;5.20;;;5.00;;
57726;SDS011;43568;43.180;-0.028;2022-11-11T07:07:16;5.15;;;4.95;;
57726;SDS011;43568;43.180;-0.028;2022-11-11T07:09:42;6.47;;;6.10;;
57726;SDS011;43568;43.180;-0.028;2022-11-11T07:12:08;7.03;;;6.50;;
57726;SDS011;43568;43.180;-0.028;2022-11-11T07:14:34;5.15;;;4.95;;
57726;SDS011;43568;43.180;-0.028;2022-11-11T07:17:00;5.00;;;4.80;;
57726;SDS011;43568;43.180;-0.028;2022-11-11T07:19:26;5.32;;;5.10;;
57726;SDS011;43568;43.180;-0.028;2022-11-11T07:21:52;5.80;;;5.55;;
57726;SDS011;43568;43.180;-0.028;2022-11-11T07:24:19;5.65;;;5.45;;
57726;SDS011;43568;43.180;-0.028;2022-11-11T07:26:45;7.28;;;6.97;;
57726;SDS011;43568;43.180;-0.028;2022-11-11T07:29:11;14.05;;;7.28;;
57726;SDS011;43568;43.180;-0.028;2022-11-11T07:31:39;5.47;;;5.28;;
57726;SDS011;43568;43.180;-0.028;2022-11-11T07:34:05;5.18;;;4.97;;
57726;SDS011;43568;43.180;-0.028;2022-11-11T07:36:31;5.43;;;5.22;;
57726;SDS011;43568;43.180;-0.028;2022-11-11T07:38:57;5.28;;;5.07;;
57726;SDS011;43568;43.180;-0.028;2022-11-11T07:41:23;5.30;;;5.10;;
57726;SDS011;43568;43.180;-0.028;2022-11-11T07:43:49;5.00;;;4.80;;
57726;SDS011;43568;43.180;-0.028;2022-11-11T07:46:15;11.70;;;11.13;;
57726;SDS011;43568;43.180;-0.028;2022-11-11T07:48:41;4.80;;;4.60;;
57726;SDS011;43568;43.180;-0.028;2022-11-11T07:51:07;4.90;;;4.70;;
57726;SDS011;43568;43.180;-0.028;2022-11-11T07:53:33;5.55;;;5.35;;
57726;SDS011;43568;43.180;-0.028;2022-11-11T07:55:59;4.88;;;4.68;;
57726;SDS011;43568;43.180;-0.028;2022-11-11T07:58:25;5.00;;;4.80;;
57726;SDS011;43568;43.180;-0.028;2022-11-11T08:00:51;8.50;;;5.63;;
57726;SDS011;43568;43.180;-0.028;2022-11-11T08:03:18;4.90;;;4.70;;
57726;SDS011;43568;43.180;-0.028;2022-11-11T08:05:44;4.80;;;4.60;;
57726;SDS011;43568;43.180;-0.028;2022-11-11T08:08:10;4.60;;;4.50;;
57726;SDS011;43568;43.180;-0.028;2022-11-11T08:10:36;4.50;;;4.40;;
57726;SDS011;43568;43.180;-0.028;2022-11-11T08:13:02;5.07;;;4.88;;
57726;SDS011;43568;43.180;-0.028;2022-11-11T08:15:47;4.50;;;4.40;;
57726;SDS011;43568;43.180;-0.028;2022-11-11T08:18:14;5.00;;;4.80;;
57726;SDS011;43568;43.180;-0.028;2022-11-11T08:20:40;5.65;;;5.45;;
57726;SDS011;43568;43.180;-0.028;2022-11-11T08:23:06;6.25;;;5.75;;
57726;SDS011;43568;43.180;-0.028;2022-11-11T08:25:35;4.90;;;4.70;;
57726;SDS011;43568;43.180;-0.028;2022-11-11T08:28:02;4.70;;;4.50;;
57726;SDS011;43568;43.180;-0.028;2022-11-11T08:30:29;4.60;;;4.50;;
57726;SDS011;43568;43.180;-0.028;2022-11-11T08:33:02;4.60;;;4.40;;
57726;SDS011;43568;43.180;-0.028;2022-11-11T08:35:29;4.40;;;4.30;;
57726;SDS011;43568;43.180;-0.028;2022-11-11T08:37:55;4.47;;;4.38;;
57726;SDS011;43568;43.180;-0.028;2022-11-11T08:40:21;4.65;;;4.45;;
57726;SDS011;43568;43.180;-0.028;2022-11-11T08:42:47;4.30;;;4.20;;
57726;SDS011;43568;43.180;-0.028;2022-11-11T08:45:13;4.30;;;4.20;;
57726;SDS011;43568;43.180;-0.028;2022-11-11T08:47:39;4.30;;;4.20;;
57726;SDS011;43568;43.180;-0.028;2022-11-11T08:50:09;4.40;;;4.30;;
57726;SDS011;43568;43.180;-0.028;2022-11-11T08:52:35;4.30;;;4.20;;
57726;SDS011;43568;43.180;-0.028;2022-11-11T08:55:01;4.30;;;4.20;;
57726;SDS011;43568;43.180;-0.028;2022-11-11T08:57:27;4.20;;;4.10;;
57726;SDS011;43568;43.180;-0.028;2022-11-11T08:59:53;4.30;;;4.20;;
57726;SDS011;43568;43.180;-0.028;2022-11-11T09:02:19;4.50;;;4.30;;
57726;SDS011;43568;43.180;-0.028;2022-11-11T09:04:45;4.63;;;4.43;;
57726;SDS011;43568;43.180;-0.028;2022-11-11T09:07:11;4.20;;;4.10;;
57726;SDS011;43568;43.180;-0.028;2022-11-11T09:09:37;4.40;;;4.30;;
57726;SDS011;43568;43.180;-0.028;2022-11-11T09:12:03;4.32;;;4.13;;
57726;SDS011;43568;43.180;-0.028;2022-11-11T09:14:30;4.63;;;4.43;;
57726;SDS011;43568;43.180;-0.028;2022-11-11T09:16:56;4.50;;;4.30;;
57726;SDS011;43568;43.180;-0.028;2022-11-11T09:19:22;4.10;;;4.00;;
57726;SDS011;43568;43.180;-0.028;2022-11-11T09:21:49;4.47;;;4.30;;
57726;SDS011;43568;43.180;-0.028;2022-11-11T09:24:16;4.30;;;4.20;;
57726;SDS011;43568;43.180;-0.028;2022-11-11T09:26:42;4.40;;;4.30;;
57726;SDS011;43568;43.180;-0.028;2022-11-11T09:29:08;4.22;;;4.13;;
57726;SDS011;43568;43.180;-0.028;2022-11-11T09:31:34;4.10;;;4.00;;
57726;SDS011;43568;43.180;-0.028;2022-11-11T09:34:00;4.13;;;4.03;;
57726;SDS011;43568;43.180;-0.028;2022-11-11T09:36:26;4.20;;;4.10;;
57726;SDS011;43568;43.180;-0.028;2022-11-11T09:38:53;3.80;;;3.70;;
57726;SDS011;43568;43.180;-0.028;2022-11-11T09:43:55;4.20;;;4.10;;
57726;SDS011;43568;43.180;-0.028;2022-11-11T09:46:24;4.28;;;4.15;;
57726;SDS011;43568;43.180;-0.028;2022-11-11T09:51:47;4.22;;;3.85;;
57726;SDS011;43568;43.180;-0.028;2022-11-11T09:56:43;4.65;;;4.43;;
57726;SDS011;43568;43.180;-0.028;2022-11-11T09:59:16;12.98;;;5.05;;
57726;SDS011;43568;43.180;-0.028;2022-11-11T10:01:44;9.10;;;4.80;;
57726;SDS011;43568;43.180;-0.028;2022-11-11T10:06:46;10.82;;;5.40;;
57726;SDS011;43568;43.180;-0.028;2022-11-11T10:09:19;4.63;;;4.32;;
57726;SDS011;43568;43.180;-0.028;2022-11-11T10:11:47;4.40;;;4.10;;
57726;SDS011;43568;43.180;-0.028;2022-11-11T10:14:15;5.07;;;4.60;;
57726;SDS011;43568;43.180;-0.028;2022-11-11T10:21:50;5.35;;;3.90;;
57726;SDS011;43568;43.180;-0.028;2022-11-11T10:24:20;4.32;;;3.92;;
57726;SDS011;43568;43.180;-0.028;2022-11-11T10:26:47;4.93;;;4.45;;
57726;SDS011;43568;43.180;-0.028;2022-11-11T10:29:16;4.53;;;4.10;;
57726;SDS011;43568;43.180;-0.028;2022-11-11T10:31:43;4.18;;;3.90;;
57726;SDS011;43568;43.180;-0.028;2022-11-11T10:34:13;4.50;;;4.10;;
57726;SDS011;43568;43.180;-0.028;2022-11-11T10:36:49;4.43;;;3.90;;
57726;SDS011;43568;43.180;-0.028;2022-11-11T10:39:18;3.80;;;3.60;;
57726;SDS011;43568;43.180;-0.028;2022-11-11T10:41:47;7.95;;;4.70;;
57726;SDS011;43568;43.180;-0.028;2022-11-11T10:44:47;3.85;;;3.55;;
57726;SDS011;43568;43.180;-0.028;2022-11-11T10:49:52;4.07;;;3.78;;
57726;SDS011;43568;43.180;-0.028;2022-11-11T10:52:19;3.35;;;3.25;;
57726;SDS011;43568;43.180;-0.028;2022-11-11T10:57:14;3.75;;;3.50;;
57726;SDS011;43568;43.180;-0.028;2022-11-11T10:59:48;3.78;;;3.55;;
57726;SDS011;43568;43.180;-0.028;2022-11-11T11:02:18;3.88;;;3.58;;
57726;SDS011;43568;43.180;-0.028;2022-11-11T11:04:46;4.07;;;3.78;;
57726;SDS011;43568;43.180;-0.028;2022-11-11T11:07:13;3.78;;;3.58;;
57726;SDS011;43568;43.180;-0.028;2022-11-11T11:09:41;3.50;;;3.20;;
57726;SDS011;43568;43.180;-0.028;2022-11-11T11:12:13;3.60;;;3.40;;
57726;SDS011;43568;43.180;-0.028;2022-11-11T11:14:50;3.95;;;3.65;;
57726;SDS011;43568;43.180;-0.028;2022-11-11T11:17:23;4.72;;;4.38;;
57726;SDS011;43568;43.180;-0.028;2022-11-11T11:20:23;3.42;;;3.22;;
57726;SDS011;43568;43.180;-0.028;2022-11-11T11:22:54;4.45;;;4.05;;
57726;SDS011;43568;43.180;-0.028;2022-11-11T11:25:22;3.80;;;3.53;;
57726;SDS011;43568;43.180;-0.028;2022-11-11T11:27:49;3.85;;;3.60;;
57726;SDS011;43568;43.180;-0.028;2022-11-11T11:30:20;3.20;;;3.00;;
57726;SDS011;43568;43.180;-0.028;2022-11-11T11:33:29;3.88;;;3.05;;
57726;SDS011;43568;43.180;-0.028;2022-11-11T11:35:42;3.90;;;3.70;;
57726;SDS011;43568;43.180;-0.028;2022-11-11T11:38:09;3.92;;;2.50;;
57726;SDS011;43568;43.180;-0.028;2022-11-11T11:40:54;11.35;;;2.92;;
57726;SDS011;43568;43.180;-0.028;2022-11-11T11:43:34;2.90;;;2.80;;
57726;SDS011;43568;43.180;-0.028;2022-11-11T11:46:01;3.03;;;2.83;;
57726;SDS011;43568;43.180;-0.028;2022-11-11T11:48:36;2.70;;;2.60;;
57726;SDS011;43568;43.180;-0.028;2022-11-11T12:01:23;2.63;;;2.50;;
57726;SDS011;43568;43.180;-0.028;2022-11-11T12:03:58;2.72;;;2.60;;
57726;SDS011;43568;43.180;-0.028;2022-11-11T12:27:09;2.80;;;2.60;;
57726;SDS011;43568;43.180;-0.028;2022-11-11T12:32:28;2.55;;;2.45;;
57726;SDS011;43568;43.180;-0.028;2022-11-11T12:35:03;3.08;;;2.60;;
57726;SDS011;43568;43.180;-0.028;2022-11-11T12:42:45;3.00;;;2.80;;
57726;SDS011;43568;43.180;-0.028;2022-11-11T12:45:26;2.65;;;2.55;;
57726;SDS011;43568;43.180;-0.028;2022-11-11T12:50:37;2.50;;;2.40;;
57726;SDS011;43568;43.180;-0.028;2022-11-11T12:53:08;35.58;;;6.07;;
57726;SDS011;43568;43.180;-0.028;2022-11-11T12:55:44;10.38;;;2.67;;
57726;SDS011;43568;43.180;-0.028;2022-11-11T13:11:02;2.60;;;2.50;;
57726;SDS011;43568;43.180;-0.028;2022-11-11T13:15:59;2.80;;;2.60;;
57726;SDS011;43568;43.180;-0.028;2022-11-11T13:18:29;2.70;;;2.50;;
57726;SDS011;43568;43.180;-0.028;2022-11-11T13:21:03;2.88;;;2.67;;
57726;SDS011;43568;43.180;-0.028;2022-11-11T13:23:31;2.60;;;2.50;;
57726;SDS011;43568;43.180;-0.028;2022-11-11T13:25:59;3.42;;;2.55;;
57726;SDS011;43568;43.180;-0.028;2022-11-11T13:28:47;2.50;;;2.40;;
57726;SDS011;43568;43.180;-0.028;2022-11-11T13:31:29;2.55;;;2.42;;
57726;SDS011;43568;43.180;-0.028;2022-11-11T13:33:57;2.90;;;2.65;;
57726;SDS011;43568;43.180;-0.028;2022-11-11T13:36:27;3.00;;;2.80;;
57726;SDS011;43568;43.180;-0.028;2022-11-11T13:39:01;2.58;;;2.38;;
57726;SDS011;43568;43.180;-0.028;2022-11-11T13:41:29;2.47;;;2.35;;
57726;SDS011;43568;43.180;-0.028;2022-11-11T13:43:57;2.60;;;2.50;;
57726;SDS011;43568;43.180;-0.028;2022-11-11T13:48:53;2.70;;;2.50;;
57726;SDS011;43568;43.180;-0.028;2022-11-11T13:52:21;2.30;;;2.10;;
57726;SDS011;43568;43.180;-0.028;2022-11-11T13:54:23;2.30;;;2.20;;
57726;SDS011;43568;43.180;-0.028;2022-11-11T13:56:51;2.53;;;2.33;;
57726;SDS011;43568;43.180;-0.028;2022-11-11T13:59:31;2.40;;;2.30;;
57726;SDS011;43568;43.180;-0.028;2022-11-11T14:10:05;2.67;;;2.47;;
57726;SDS011;43568;43.180;-0.028;2022-11-11T14:12:32;2.83;;;2.63;;
57726;SDS011;43568;43.180;-0.028;2022-11-11T14:14:59;2.72;;;2.53;;
57726;SDS011;43568;43.180;-0.028;2022-11-11T14:17:25;3.17;;;2.75;;
57726;SDS011;43568;43.180;-0.028;2022-11-11T14:19:52;2.35;;;2.25;;
57726;SDS011;43568;43.180;-0.028;2022-11-11T14:24:53;2.40;;;2.30;;
57726;SDS011;43568;43.180;-0.028;2022-11-11T14:27:24;2.50;;;2.40;;
57726;SDS011;43568;43.180;-0.028;2022-11-11T14:29:52;2.80;;;2.60;;
57726;SDS011;43568;43.180;-0.028;2022-11-11T14:32:28;2.60;;;2.40;;
57726;SDS011;43568;43.180;-0.028;2022-11-11T14:40:28;2.80;;;2.70;;
57726;SDS011;43568;43.180;-0.028;2022-11-11T14:42:55;2.40;;;2.30;;
57726;SDS011;43568;43.180;-0.028;2022-11-11T14:47:57;2.72;;;2.63;;
57726;SDS011;43568;43.180;-0.028;2022-11-11T14:52:55;3.10;;;2.85;;
57726;SDS011;43568;43.180;-0.028;2022-11-11T14:55:29;2.55;;;2.45;;
57726;SDS011;43568;43.180;-0.028;2022-11-11T14:58:14;2.60;;;2.50;;
57726;SDS011;43568;43.180;-0.028;2022-11-11T15:00:52;2.80;;;2.60;;
57726;SDS011;43568;43.180;-0.028;2022-11-11T15:05:53;3.45;;;3.15;;
57726;SDS011;43568;43.180;-0.028;2022-11-11T15:13:34;3.20;;;2.88;;
57726;SDS011;43568;43.180;-0.028;2022-11-11T15:18:50;2.88;;;2.60;;
57726;SDS011;43568;43.180;-0.028;2022-11-11T15:21:35;3.30;;;3.05;;
57726;SDS011;43568;43.180;-0.028;2022-11-11T15:32:15;4.75;;;3.35;;
57726;SDS011;43568;43.180;-0.028;2022-11-11T15:37:21;3.50;;;3.28;;
57726;SDS011;43568;43.180;-0.028;2022-11-11T15:39:50;4.78;;;3.78;;
57726;SDS011;43568;43.180;-0.028;2022-11-11T15:44:48;2.92;;;2.72;;
57726;SDS011;43568;43.180;-0.028;2022-11-11T15:47:15;3.47;;;3.17;;
57726;SDS011;43568;43.180;-0.028;2022-11-11T15:49:46;5.35;;;3.20;;
57726;SDS011;43568;43.180;-0.028;2022-11-11T15:54:48;3.45;;;3.25;;
57726;SDS011;43568;43.180;-0.028;2022-11-11T15:59:47;3.40;;;3.20;;
57726;SDS011;43568;43.180;-0.028;2022-11-11T16:02:15;4.13;;;3.15;;
57726;SDS011;43568;43.180;-0.028;2022-11-11T16:04:49;3.78;;;3.47;;
57726;SDS011;43568;43.180;-0.028;2022-11-11T16:07:20;3.20;;;3.00;;
57726;SDS011;43568;43.180;-0.028;2022-11-11T16:09:46;3.55;;;3.35;;
57726;SDS011;43568;43.180;-0.028;2022-11-11T16:12:15;3.80;;;3.50;;
57726;SDS011;43568;43.180;-0.028;2022-11-11T16:14:42;3.45;;;3.15;;
57726;SDS011;43568;43.180;-0.028;2022-11-11T16:17:11;6.78;;;4.55;;
57726;SDS011;43568;43.180;-0.028;2022-11-11T16:19:38;4.57;;;4.17;;
57726;SDS011;43568;43.180;-0.028;2022-11-11T16:22:10;4.45;;;4.00;;
57726;SDS011;43568;43.180;-0.028;2022-11-11T16:24:38;4.68;;;4.28;;
57726;SDS011;43568;43.180;-0.028;2022-11-11T16:27:05;14.85;;;8.73;;
57726;SDS011;43568;43.180;-0.028;2022-11-11T16:29:35;10.43;;;7.78;;
57726;SDS011;43568;43.180;-0.028;2022-11-11T16:35:20;6.85;;;6.25;;
57726;SDS011;43568;43.180;-0.028;2022-11-11T16:37:50;6.40;;;5.22;;
57726;SDS011;43568;43.180;-0.028;2022-11-11T16:45:54;6.15;;;4.55;;
57726;SDS011;43568;43.180;-0.028;2022-11-11T16:53:28;5.63;;;5.13;;
57726;SDS011;43568;43.180;-0.028;2022-11-11T16:55:57;8.10;;;5.97;;
57726;SDS011;43568;43.180;-0.028;2022-11-11T16:58:24;8.80;;;5.55;;
57726;SDS011;43568;43.180;-0.028;2022-11-11T17:00:50;6.10;;;5.50;;
57726;SDS011;43568;43.180;-0.028;2022-11-11T17:03:23;5.22;;;4.72;;
57726;SDS011;43568;43.180;-0.028;2022-11-11T17:10:53;5.40;;;4.90;;
57726;SDS011;43568;43.180;-0.028;2022-11-11T17:13:19;4.50;;;4.10;;
57726;SDS011;43568;43.180;-0.028;2022-11-11T17:15:45;6.38;;;5.78;;
57726;SDS011;43568;43.180;-0.028;2022-11-11T17:18:11;7.65;;;6.65;;
57726;SDS011;43568;43.180;-0.028;2022-11-11T17:20:38;6.95;;;6.28;;
57726;SDS011;43568;43.180;-0.028;2022-11-11T17:23:04;7.13;;;6.47;;